• Join FlightAware (Why Join?)
  • Login
  • US Flag 
09:00AM EDT


 

Airport Tracker/Info


-or-


 

Live Flight TrackerFlight Track Log ✈ VH-ZFY ✈ 07-Sep-2013 ✈ YSBK / BWU - YSBK / BWU

Flight Track Log - Related Links

Times and Time Zones

All times are in EDT time to prevent confusion due to time zone crossing. See the VH-ZFY flight status page for this flight to view local times or setup timezone preferences in your user account.

Time Position Orientation Groundspeed Altitude Reporting Facility
EDT Latitude Longitude Course Direction KTS MPH feet Rate Location/Type
01:12AM -33.7033 151.1635 87° East 112 129 1,800  Level Aus ATC (RADAR)
01:12AM -33.7021 151.1875 87° East 116 133 1,800  Level Aus ATC (RADAR)
01:13AM -33.7050 151.2179 96° East 122 140 1,800  Level Aus ATC (RADAR)
01:13AM -33.7113 151.2407 108° East 121 139 1,800 -60 Level Aus ATC (RADAR)
01:15AM -33.7247 151.2809 112° Southeast 114 131 1,700 -120 Descending Aus ATC (RADAR)
01:15AM -33.7308 151.2954 117° Southeast 113 130 1,700  Level Aus ATC (RADAR)
01:16AM -33.7270 151.3136 76° East 113 130 1,700 -120 Level Aus ATC (RADAR)
01:16AM -33.7285 151.2955 264° West 108 124 1,600 -120 Descending Aus ATC (RADAR)
01:17AM -33.7417 151.3111 136° Southeast 112 129 1,600  Level Aus ATC (RADAR)
01:18AM -33.7618 151.2951 214° Southwest 101 116 1,600  Level Aus ATC (RADAR)
01:18AM -33.7780 151.2829 212° Southwest 100 115 1,600 120 Level Aus ATC (RADAR)
01:19AM -33.7964 151.2700 210° Southwest 100 115 1,800  Climbing Aus ATC (RADAR)
01:20AM -33.8071 151.2639 206° Southwest 102 117 1,600  Descending Aus ATC (RADAR)
01:20AM -33.8188 151.2551 212° Southwest 98 113 1,800 60 Climbing Aus ATC (RADAR)
01:21AM -33.8299 151.2464 213° Southwest 95 109 1,700  Descending Aus ATC (RADAR)
01:21AM -33.8411 151.2305 230° Southwest 90 104 1,800 60 Climbing Aus ATC (RADAR)
01:22AM -33.8490 151.2220 222° Southwest 91 105 1,800  Level Aus ATC (RADAR)
01:22AM -33.8454 151.2334 69° East 106 122 1,800 -180 Level Aus ATC (RADAR)
01:23AM -33.8513 151.2291 211° Southwest 97 112 1,600 -180 Descending Aus ATC (RADAR)
01:24AM -33.8408 151.2494 58° Northeast 120 138 1,600 -120 Level Aus ATC (RADAR)
01:25AM -33.8167 151.2745 41° Northeast 114 131 1,500  Descending Aus ATC (RADAR)
01:25AM -33.8081 151.2807 31° Northeast 109 125 1,600 300 Climbing Aus ATC (RADAR)
01:25AM -33.7921 151.2901 26° Northeast 110 127 1,800 120 Climbing Aus ATC (RADAR)
01:26AM -33.7709 151.3003 22° Northeast 110 127 1,800  Level Aus ATC (RADAR)
01:27AM -33.7564 151.3067 20° North 111 128 1,800  Level Aus ATC (RADAR)
01:30AM -33.6486 151.2512 337° Northwest 1,500 -120 Descending Aus ATC (Calculated)
01:32AM -33.6262 151.2396 337° Northwest  Level FlightAware Approximate
01:33AM -33.6103 151.2315 337° Northwest  Level FlightAware Approximate
01:34AM -33.5945 151.2234 337° Northwest  Level FlightAware Approximate
01:35AM -33.5786 151.2152 337° Northwest  Level FlightAware Approximate
01:36AM -33.5628 151.2071 337° Northwest  Level FlightAware Approximate
01:36AM -33.5408 151.1958 360° North 1,500  Level Aus ATC (Calculated)
01:38AM -33.5190 151.1958 North  Level FlightAware Approximate
01:39AM -33.5362 151.1958 180° South  Level FlightAware Approximate
01:40AM -33.5535 151.1958 180° South  Level FlightAware Approximate
01:41AM -33.5362 151.1958 360° North  Level FlightAware Approximate
01:42AM -33.5535 151.1958 180° South  Level FlightAware Approximate
01:43AM -33.5362 151.1958 360° North  Level FlightAware Approximate
01:44AM -33.5535 151.1958 180° South  Level FlightAware Approximate
01:45AM -33.5479 151.1887 220° Southwest  Level FlightAware Approximate
01:46AM -33.5611 151.1754 220° Southwest  Level FlightAware Approximate
01:47AM -33.5743 151.1621 220° Southwest  Level FlightAware Approximate
01:48AM -33.5875 151.1488 220° Southwest  Level FlightAware Approximate
01:49AM -33.6007 151.1355 220° Southwest  Level FlightAware Approximate
01:50AM -33.6139 151.1221 220° Southwest  Level FlightAware Approximate
01:50AM -33.8167 150.9167 360° North  Level Aus ATC (Calculated)
01:52AM -33.7911 150.9167 North  Level FlightAware Approximate
01:52AM -33.8705 150.9525 334° Northwest  Level Aus ATC (Calculated)
01:53AM -33.8083 150.9167 180° South  Level FlightAware Approximate
01:54AM -33.8547 150.9420 331° Northwest  Level FlightAware Approximate
01:55AM -33.8396 150.9319 331° Northwest  Level FlightAware Approximate
01:56AM -33.8245 150.9219 331° Northwest  Level FlightAware Approximate
01:57AM -33.8094 150.9118 331° Northwest  Level FlightAware Approximate
01:58AM -33.8245 150.9219 151° Southeast  Level FlightAware Approximate
01:59AM -33.8094 150.9118 331° Northwest  Level FlightAware Approximate
02:00AM -33.8245 150.9219 151° Southeast  Level FlightAware Approximate